Search for airport 
image banner adimage banner adimage banner ad
image banner ad

KLSV - Nellis Afb

Located in Las Vegas, United States

ICAO - LSV, IATA - LSV

Data provided by Airmate  

General information

Coordinates: N36°14'10" W115°2'3"
Elevation is 1869 feet MSL.
Magnetic variation is 12° East
View others Airports in Nevada

Operational data

Special qualification required
Current time UTC:
Current local time:
Weather
METAR: KLSV 130258Z AUTO 12007KT 10SM CLR 37/M12 A2973 RMK AO2 SLP041 T03701117 55007 $
TAF: TAF KLSV 122300Z 1223/1405 14009KT 9999 SKC QNH2975INS BECMG 1302/1303 30006KT 9999 SKC QNH2974INS BECMG 1320/1321 15010G15KT 9999 SKC QNH2971INS BECMG 1402/1403 31009KT 9999 SKC QNH2974INS TX40/1223Z TN23/1313Z
View NOTAMs / SUP AIP / TFR affecting this airport [VIEW]
Communications frequencies: [VIEW]

Runways:

RWY identifierQFULength (ft)Width (ft)SurfaceLDA (ft)
03R41°10051150CONC
21L221°10051150CONC
03L41°10120200CONC
21R221°10120200CONC

Airport contact information

Address: Las Vegas United States

Satellite view of KLSV